sensor_id;sensor_type;location;lat;lon;timestamp;pressure;altitude;pressure_sealevel;temperature;humidity
79415;BME280;68864;44.972;19.612;2024-03-23T00:53:18;100647.19;;;10.23;65.68
79415;BME280;68864;44.972;19.612;2024-03-23T00:55:45;100650.38;;;10.25;66.07
79415;BME280;68864;44.972;19.612;2024-03-23T00:58:11;100644.63;;;10.18;66.22
79415;BME280;68864;44.972;19.612;2024-03-23T01:00:38;100646.44;;;10.10;65.49
79415;BME280;68864;44.972;19.612;2024-03-23T01:03:04;100643.53;;;10.07;64.76
79415;BME280;68864;44.972;19.612;2024-03-23T01:05:31;100646.91;;;9.84;68.40
79415;BME280;68864;44.972;19.612;2024-03-23T01:07:57;100641.53;;;9.91;66.68
79415;BME280;68864;44.972;19.612;2024-03-23T01:10:26;100636.78;;;9.92;66.09
79415;BME280;68864;44.972;19.612;2024-03-23T01:12:52;100637.88;;;9.87;66.74
79415;BME280;68864;44.972;19.612;2024-03-23T01:15:19;100636.78;;;9.92;67.22
79415;BME280;68864;44.972;19.612;2024-03-23T01:17:45;100638.75;;;9.91;67.48
79415;BME280;68864;44.972;19.612;2024-03-23T01:20:12;100632.75;;;9.89;66.67
79415;BME280;68864;44.972;19.612;2024-03-23T01:22:38;100625.72;;;9.80;66.35
79415;BME280;68864;44.972;19.612;2024-03-23T01:25:05;100626.25;;;9.85;66.67
79415;BME280;68864;44.972;19.612;2024-03-23T01:27:33;100626.25;;;9.85;66.31
79415;BME280;68864;44.972;19.612;2024-03-23T01:30:00;100625.44;;;9.85;66.64
79415;BME280;68864;44.972;19.612;2024-03-23T01:32:26;100628.97;;;9.82;67.69
79415;BME280;68864;44.972;19.612;2024-03-23T01:34:53;100623.75;;;9.80;67.14
79415;BME280;68864;44.972;19.612;2024-03-23T01:37:19;100611.34;;;9.78;67.22
79415;BME280;68864;44.972;19.612;2024-03-23T01:39:46;100616.09;;;9.77;67.09
79415;BME280;68864;44.972;19.612;2024-03-23T01:42:12;100614.84;;;9.75;67.56
79415;BME280;68864;44.972;19.612;2024-03-23T01:44:41;100611.81;;;9.80;67.32
79415;BME280;68864;44.972;19.612;2024-03-23T01:47:07;100611.91;;;9.83;66.99
79415;BME280;68864;44.972;19.612;2024-03-23T01:49:35;100605.53;;;9.83;66.60
79415;BME280;68864;44.972;19.612;2024-03-23T01:52:01;100601.13;;;9.82;67.10
79415;BME280;68864;44.972;19.612;2024-03-23T01:54:29;100594.44;;;9.71;67.00
79415;BME280;68864;44.972;19.612;2024-03-23T01:56:56;100592.13;;;9.73;66.93
79415;BME280;68864;44.972;19.612;2024-03-23T01:59:23;100608.63;;;9.66;67.40
79415;BME280;68864;44.972;19.612;2024-03-23T02:01:51;100597.31;;;9.58;67.94
79415;BME280;68864;44.972;19.612;2024-03-23T02:04:18;100603.97;;;9.54;68.32
79415;BME280;68864;44.972;19.612;2024-03-23T02:06:44;100600.97;;;9.47;69.14
79415;BME280;68864;44.972;19.612;2024-03-23T02:09:11;100591.97;;;9.38;69.18
79415;BME280;68864;44.972;19.612;2024-03-23T02:11:38;100599.34;;;9.30;69.03
79415;BME280;68864;44.972;19.612;2024-03-23T02:14:05;100597.34;;;9.31;68.94
79415;BME280;68864;44.972;19.612;2024-03-23T02:16:31;100600.50;;;9.29;69.20
79415;BME280;68864;44.972;19.612;2024-03-23T02:18:59;100601.72;;;9.32;69.41
79415;BME280;68864;44.972;19.612;2024-03-23T02:21:25;100582.94;;;9.13;69.90
79415;BME280;68864;44.972;19.612;2024-03-23T02:23:54;100585.44;;;9.18;68.58
79415;BME280;68864;44.972;19.612;2024-03-23T02:26:20;100578.09;;;9.10;69.03
79415;BME280;68864;44.972;19.612;2024-03-23T02:28:47;100575.00;;;8.99;70.20
79415;BME280;68864;44.972;19.612;2024-03-23T02:31:13;100570.50;;;8.95;70.55
79415;BME280;68864;44.972;19.612;2024-03-23T02:33:41;100566.66;;;8.99;69.41
79415;BME280;68864;44.972;19.612;2024-03-23T02:36:07;100555.03;;;8.82;69.99
79415;BME280;68864;44.972;19.612;2024-03-23T02:38:34;100572.59;;;8.86;69.66
79415;BME280;68864;44.972;19.612;2024-03-23T02:41:05;100561.84;;;8.84;71.41
79415;BME280;68864;44.972;19.612;2024-03-23T02:43:32;100565.78;;;8.83;69.48
79415;BME280;68864;44.972;19.612;2024-03-23T02:45:58;100558.66;;;8.70;70.28
79415;BME280;68864;44.972;19.612;2024-03-23T02:48:26;100562.13;;;8.67;69.55
79415;BME280;68864;44.972;19.612;2024-03-23T02:50:52;100558.19;;;8.68;70.15
79415;BME280;68864;44.972;19.612;2024-03-23T02:53:19;100556.31;;;8.72;70.67
79415;BME280;68864;44.972;19.612;2024-03-23T02:55:45;100554.34;;;8.72;70.34
79415;BME280;68864;44.972;19.612;2024-03-23T02:58:14;100557.59;;;8.74;71.09
79415;BME280;68864;44.972;19.612;2024-03-23T03:00:40;100545.56;;;8.70;70.19
79415;BME280;68864;44.972;19.612;2024-03-23T03:03:07;100559.44;;;8.83;70.13
79415;BME280;68864;44.972;19.612;2024-03-23T03:05:34;100550.16;;;8.78;70.65
79415;BME280;68864;44.972;19.612;2024-03-23T03:08:01;100558.63;;;8.82;70.42
79415;BME280;68864;44.972;19.612;2024-03-23T03:10:27;100549.34;;;8.78;70.96
79415;BME280;68864;44.972;19.612;2024-03-23T03:12:54;100545.09;;;8.68;71.32
79415;BME280;68864;44.972;19.612;2024-03-23T03:15:22;100553.91;;;8.70;70.64
79415;BME280;68864;44.972;19.612;2024-03-23T03:17:49;100551.13;;;8.58;71.74
79415;BME280;68864;44.972;19.612;2024-03-23T03:20:15;100553.25;;;8.49;72.78
79415;BME280;68864;44.972;19.612;2024-03-23T03:22:43;100543.28;;;8.48;72.22
79415;BME280;68864;44.972;19.612;2024-03-23T03:25:09;100539.03;;;8.51;72.19
79415;BME280;68864;44.972;19.612;2024-03-23T03:27:36;100544.34;;;8.56;72.30
79415;BME280;68864;44.972;19.612;2024-03-23T03:30:02;100532.88;;;8.57;72.21
79415;BME280;68864;44.972;19.612;2024-03-23T03:32:33;100526.19;;;8.34;72.79
79415;BME280;68864;44.972;19.612;2024-03-23T03:34:59;100528.97;;;8.34;73.61
79415;BME280;68864;44.972;19.612;2024-03-23T03:37:26;100524.56;;;8.21;74.16
79415;BME280;68864;44.972;19.612;2024-03-23T03:39:52;100513.69;;;8.16;74.56
79415;BME280;68864;44.972;19.612;2024-03-23T03:42:19;100520.88;;;8.17;74.62
79415;BME280;68864;44.972;19.612;2024-03-23T03:44:45;100529.06;;;8.25;74.20
79415;BME280;68864;44.972;19.612;2024-03-23T03:47:12;100533.47;;;8.26;73.40
79415;BME280;68864;44.972;19.612;2024-03-23T03:49:39;100523.41;;;8.22;74.04
79415;BME280;68864;44.972;19.612;2024-03-23T03:52:06;100531.28;;;8.32;73.98
79415;BME280;68864;44.972;19.612;2024-03-23T03:54:33;100536.16;;;8.35;74.20
79415;BME280;68864;44.972;19.612;2024-03-23T03:57:00;100540.06;;;8.34;73.82
79415;BME280;68864;44.972;19.612;2024-03-23T03:59:26;100537.31;;;8.34;75.51
79415;BME280;68864;44.972;19.612;2024-03-23T04:01:53;100532.66;;;8.38;74.08
79415;BME280;68864;44.972;19.612;2024-03-23T04:04:19;100534.41;;;8.43;74.17
79415;BME280;68864;44.972;19.612;2024-03-23T04:06:49;100531.97;;;8.41;74.45
79415;BME280;68864;44.972;19.612;2024-03-23T04:09:15;100527.81;;;8.35;75.39
79415;BME280;68864;44.972;19.612;2024-03-23T04:11:42;100523.97;;;8.27;75.21
79415;BME280;68864;44.972;19.612;2024-03-23T04:14:08;100538.59;;;8.36;74.93
79415;BME280;68864;44.972;19.612;2024-03-23T04:16:35;100532.91;;;8.33;74.96
79415;BME280;68864;44.972;19.612;2024-03-23T04:19:01;100519.91;;;8.25;74.19
79415;BME280;68864;44.972;19.612;2024-03-23T04:21:29;100517.03;;;8.21;75.07
79415;BME280;68864;44.972;19.612;2024-03-23T04:23:56;100531.03;;;8.25;75.37
79415;BME280;68864;44.972;19.612;2024-03-23T04:26:24;100529.44;;;8.24;75.50
79415;BME280;68864;44.972;19.612;2024-03-23T04:28:49;100534.63;;;8.25;75.09
79415;BME280;68864;44.972;19.612;2024-03-23T04:31:17;100526.28;;;8.25;74.84
79415;BME280;68864;44.972;19.612;2024-03-23T04:33:43;100525.13;;;8.26;74.95
79415;BME280;68864;44.972;19.612;2024-03-23T04:36:10;100534.75;;;8.29;74.77
79415;BME280;68864;44.972;19.612;2024-03-23T04:38:36;100531.50;;;8.27;75.38
79415;BME280;68864;44.972;19.612;2024-03-23T04:41:04;100525.94;;;8.27;74.42
79415;BME280;68864;44.972;19.612;2024-03-23T04:43:30;100522.47;;;8.18;73.88
79415;BME280;68864;44.972;19.612;2024-03-23T04:45:57;100513.56;;;8.12;73.62
79415;BME280;68864;44.972;19.612;2024-03-23T04:48:24;100521.47;;;8.10;74.30
79415;BME280;68864;44.972;19.612;2024-03-23T04:50:54;100517.28;;;8.16;75.07
79415;BME280;68864;44.972;19.612;2024-03-23T04:53:21;100525.94;;;8.27;73.25
79415;BME280;68864;44.972;19.612;2024-03-23T04:55:50;100522.25;;;8.35;74.15
79415;BME280;68864;44.972;19.612;2024-03-23T04:58:18;100522.47;;;8.42;73.02
79415;BME280;68864;44.972;19.612;2024-03-23T05:00:44;100511.50;;;8.33;73.31
79415;BME280;68864;44.972;19.612;2024-03-23T05:03:11;100518.06;;;8.53;71.58
79415;BME280;68864;44.972;19.612;2024-03-23T05:05:37;100520.34;;;8.63;71.02
79415;BME280;68864;44.972;19.612;2024-03-23T05:08:05;100515.13;;;8.62;71.23
79415;BME280;68864;44.972;19.612;2024-03-23T05:10:32;100516.38;;;8.64;71.43
79415;BME280;68864;44.972;19.612;2024-03-23T05:12:59;100514.75;;;8.75;70.93
79415;BME280;68864;44.972;19.612;2024-03-23T05:15:27;100515.97;;;8.90;69.83
79415;BME280;68864;44.972;19.612;2024-03-23T05:17:53;100506.41;;;9.03;69.15
79415;BME280;68864;44.972;19.612;2024-03-23T05:20:19;100510.38;;;9.18;68.16
79415;BME280;68864;44.972;19.612;2024-03-23T05:22:47;100516.50;;;9.39;68.09
79415;BME280;68864;44.972;19.612;2024-03-23T05:25:13;100489.72;;;9.63;66.97
79415;BME280;68864;44.972;19.612;2024-03-23T05:27:41;100499.19;;;9.93;66.08
79415;BME280;68864;44.972;19.612;2024-03-23T05:30:07;100495.75;;;10.15;65.71
79415;BME280;68864;44.972;19.612;2024-03-23T05:32:37;100493.72;;;11.70;61.42
79415;BME280;68864;44.972;19.612;2024-03-23T05:35:06;100496.84;;;15.01;50.55
79415;BME280;68864;44.972;19.612;2024-03-23T05:37:34;100488.28;;;17.14;44.74
79415;BME280;68864;44.972;19.612;2024-03-23T05:40:00;100490.00;;;18.14;42.14
79415;BME280;68864;44.972;19.612;2024-03-23T05:42:29;100485.66;;;19.42;39.05
79415;BME280;68864;44.972;19.612;2024-03-23T05:44:56;100485.91;;;19.28;38.23
79415;BME280;68864;44.972;19.612;2024-03-23T05:47:22;100473.78;;;20.90;36.60
79415;BME280;68864;44.972;19.612;2024-03-23T05:49:50;100483.75;;;21.54;34.52
79415;BME280;68864;44.972;19.612;2024-03-23T05:52:17;100486.53;;;22.68;33.07
79415;BME280;68864;44.972;19.612;2024-03-23T05:54:46;100483.09;;;23.43;31.38
79415;BME280;68864;44.972;19.612;2024-03-23T05:57:12;100480.50;;;23.99;29.85
79415;BME280;68864;44.972;19.612;2024-03-23T05:59:39;100478.84;;;24.92;28.84
79415;BME280;68864;44.972;19.612;2024-03-23T06:02:05;100476.66;;;25.89;27.26
79415;BME280;68864;44.972;19.612;2024-03-23T06:04:33;100477.25;;;26.24;26.89
79415;BME280;68864;44.972;19.612;2024-03-23T06:07:00;100474.16;;;27.79;24.49
79415;BME280;68864;44.972;19.612;2024-03-23T06:09:27;100458.69;;;28.19;24.12
79415;BME280;68864;44.972;19.612;2024-03-23T06:11:56;100468.41;;;29.28;22.93
79415;BME280;68864;44.972;19.612;2024-03-23T06:14:23;100473.03;;;29.69;21.73
79415;BME280;68864;44.972;19.612;2024-03-23T06:16:49;100463.31;;;30.36;21.67
79415;BME280;68864;44.972;19.612;2024-03-23T06:19:16;100466.91;;;31.18;19.83
79415;BME280;68864;44.972;19.612;2024-03-23T06:21:43;100464.41;;;32.48;18.76
79415;BME280;68864;44.972;19.612;2024-03-23T06:24:11;100462.97;;;32.74;18.07
79415;BME280;68864;44.972;19.612;2024-03-23T06:26:37;100456.50;;;33.85;17.86
79415;BME280;68864;44.972;19.612;2024-03-23T06:29:04;100459.53;;;34.38;16.76
79415;BME280;68864;44.972;19.612;2024-03-23T06:31:31;100455.25;;;35.43;15.75
79415;BME280;68864;44.972;19.612;2024-03-23T06:33:58;100458.13;;;36.03;15.85
79415;BME280;68864;44.972;19.612;2024-03-23T06:36:24;100447.66;;;35.70;15.94
79415;BME280;68864;44.972;19.612;2024-03-23T06:38:51;100444.03;;;36.37;15.11
79415;BME280;68864;44.972;19.612;2024-03-23T06:41:19;100446.63;;;36.59;14.47
79415;BME280;68864;44.972;19.612;2024-03-23T06:43:46;100444.28;;;37.46;14.41
79415;BME280;68864;44.972;19.612;2024-03-23T06:46:12;100440.50;;;38.22;14.26
79415;BME280;68864;44.972;19.612;2024-03-23T06:48:39;100432.56;;;38.83;12.90
79415;BME280;68864;44.972;19.612;2024-03-23T06:51:05;100437.66;;;39.37;11.98
79415;BME280;68864;44.972;19.612;2024-03-23T06:53:32;100430.84;;;37.74;13.91
79415;BME280;68864;44.972;19.612;2024-03-23T06:55:58;100430.09;;;38.87;12.90
79415;BME280;68864;44.972;19.612;2024-03-23T06:58:28;100434.94;;;39.81;11.70
79415;BME280;68864;44.972;19.612;2024-03-23T07:00:54;100433.47;;;40.59;11.35
79415;BME280;68864;44.972;19.612;2024-03-23T07:03:21;100441.16;;;40.34;11.09
79415;BME280;68864;44.972;19.612;2024-03-23T07:05:47;100432.41;;;40.34;10.97
79415;BME280;68864;44.972;19.612;2024-03-23T07:08:14;100427.09;;;41.27;10.43
79415;BME280;68864;44.972;19.612;2024-03-23T07:10:46;100421.09;;;40.02;10.58
79415;BME280;68864;44.972;19.612;2024-03-23T07:13:13;100426.97;;;40.81;10.42
79415;BME280;68864;44.972;19.612;2024-03-23T07:15:41;100427.34;;;40.06;10.32
79415;BME280;68864;44.972;19.612;2024-03-23T07:18:08;100423.06;;;40.35;10.67
79415;BME280;68864;44.972;19.612;2024-03-23T07:20:34;100412.66;;;42.05;9.09
79415;BME280;68864;44.972;19.612;2024-03-23T07:23:01;100407.53;;;42.21;8.71
79415;BME280;68864;44.972;19.612;2024-03-23T07:25:27;100411.47;;;44.03;7.72
79415;BME280;68864;44.972;19.612;2024-03-23T07:27:54;100401.31;;;43.62;7.23
79415;BME280;68864;44.972;19.612;2024-03-23T07:30:20;100403.34;;;44.28;6.94
79415;BME280;68864;44.972;19.612;2024-03-23T07:32:49;100393.22;;;44.73;6.22
79415;BME280;68864;44.972;19.612;2024-03-23T07:35:15;100397.00;;;44.66;6.42
79415;BME280;68864;44.972;19.612;2024-03-23T07:37:42;100398.72;;;45.49;5.97
79415;BME280;68864;44.972;19.612;2024-03-23T07:40:09;100383.06;;;46.60;5.17
79415;BME280;68864;44.972;19.612;2024-03-23T07:42:37;100383.16;;;47.32;4.19
79415;BME280;68864;44.972;19.612;2024-03-23T07:45:04;100370.41;;;47.60;3.94
79415;BME280;68864;44.972;19.612;2024-03-23T07:47:31;100379.56;;;48.28;3.49
79415;BME280;68864;44.972;19.612;2024-03-23T07:49:58;100378.47;;;48.12;3.42
79415;BME280;68864;44.972;19.612;2024-03-23T07:52:28;100377.31;;;47.74;3.47
79415;BME280;68864;44.972;19.612;2024-03-23T07:54:54;100371.03;;;48.88;3.99
79415;BME280;68864;44.972;19.612;2024-03-23T07:57:21;100384.13;;;49.53;3.80
79415;BME280;68864;44.972;19.612;2024-03-23T07:59:47;100363.88;;;50.47;3.16
79415;BME280;68864;44.972;19.612;2024-03-23T08:02:14;100367.66;;;50.36;3.75
79415;BME280;68864;44.972;19.612;2024-03-23T08:04:40;100369.66;;;50.57;3.68
79415;BME280;68864;44.972;19.612;2024-03-23T08:07:09;100364.50;;;49.71;4.34
79415;BME280;68864;44.972;19.612;2024-03-23T08:09:35;100355.38;;;49.21;4.69
79415;BME280;68864;44.972;19.612;2024-03-23T08:12:02;100358.69;;;50.47;4.23
79415;BME280;68864;44.972;19.612;2024-03-23T08:14:28;100351.63;;;50.41;4.33
79415;BME280;68864;44.972;19.612;2024-03-23T08:16:55;100351.38;;;50.11;4.71
79415;BME280;68864;44.972;19.612;2024-03-23T08:19:21;100347.16;;;50.65;4.21
79415;BME280;68864;44.972;19.612;2024-03-23T08:21:48;100341.31;;;49.80;4.62
79415;BME280;68864;44.972;19.612;2024-03-23T08:24:17;100342.34;;;50.46;4.75
79415;BME280;68864;44.972;19.612;2024-03-23T08:26:45;100337.72;;;51.49;4.83
79415;BME280;68864;44.972;19.612;2024-03-23T08:29:11;100332.59;;;52.06;4.35
79415;BME280;68864;44.972;19.612;2024-03-23T08:31:38;100330.66;;;51.15;5.00
79415;BME280;68864;44.972;19.612;2024-03-23T08:34:04;100330.22;;;51.75;4.12
79415;BME280;68864;44.972;19.612;2024-03-23T08:36:32;100322.31;;;50.72;4.90
79415;BME280;68864;44.972;19.612;2024-03-23T08:38:57;100313.31;;;50.45;5.16
79415;BME280;68864;44.972;19.612;2024-03-23T08:41:26;100311.19;;;50.98;4.90
79415;BME280;68864;44.972;19.612;2024-03-23T08:43:52;100308.09;;;50.96;4.27
79415;BME280;68864;44.972;19.612;2024-03-23T08:46:19;100312.50;;;51.63;4.34
79415;BME280;68864;44.972;19.612;2024-03-23T08:48:46;100302.97;;;51.94;4.65
79415;BME280;68864;44.972;19.612;2024-03-23T08:51:15;100304.81;;;51.17;5.06
79415;BME280;68864;44.972;19.612;2024-03-23T08:53:42;100289.06;;;51.01;4.43
79415;BME280;68864;44.972;19.612;2024-03-23T08:56:10;100301.41;;;47.77;5.41
79415;BME280;68864;44.972;19.612;2024-03-23T08:58:38;100291.66;;;46.03;6.69
79415;BME280;68864;44.972;19.612;2024-03-23T09:01:07;100287.19;;;47.85;5.89
79415;BME280;68864;44.972;19.612;2024-03-23T09:03:33;100278.13;;;43.64;9.05
79415;BME280;68864;44.972;19.612;2024-03-23T09:06:00;100280.28;;;40.32;10.43
79415;BME280;68864;44.972;19.612;2024-03-23T09:08:27;100268.63;;;36.27;13.78
79415;BME280;68864;44.972;19.612;2024-03-23T09:10:54;100281.44;;;34.31;15.56
79415;BME280;68864;44.972;19.612;2024-03-23T09:13:20;100267.69;;;33.22;16.58
79415;BME280;68864;44.972;19.612;2024-03-23T09:15:50;100258.22;;;32.49;17.63
79415;BME280;68864;44.972;19.612;2024-03-23T09:18:16;100262.69;;;31.63;18.87
79415;BME280;68864;44.972;19.612;2024-03-23T09:20:43;100269.09;;;30.15;19.98
79415;BME280;68864;44.972;19.612;2024-03-23T09:23:09;100256.69;;;29.63;20.43
79415;BME280;68864;44.972;19.612;2024-03-23T09:25:37;100249.81;;;29.20;21.52
79415;BME280;68864;44.972;19.612;2024-03-23T09:28:04;100248.63;;;28.92;22.11
79415;BME280;68864;44.972;19.612;2024-03-23T09:30:32;100246.97;;;28.70;21.40
79415;BME280;68864;44.972;19.612;2024-03-23T09:33:00;100245.00;;;28.47;22.09
79415;BME280;68864;44.972;19.612;2024-03-23T09:35:27;100243.31;;;27.49;22.32
79415;BME280;68864;44.972;19.612;2024-03-23T09:37:53;100244.47;;;27.42;22.86
79415;BME280;68864;44.972;19.612;2024-03-23T09:40:20;100236.94;;;27.30;23.03
79415;BME280;68864;44.972;19.612;2024-03-23T09:42:50;100225.97;;;27.05;23.10
79415;BME280;68864;44.972;19.612;2024-03-23T09:45:19;100234.53;;;25.75;24.31
79415;BME280;68864;44.972;19.612;2024-03-23T09:47:47;100224.72;;;25.85;24.44
79415;BME280;68864;44.972;19.612;2024-03-23T09:50:16;100219.00;;;25.76;25.13
79415;BME280;68864;44.972;19.612;2024-03-23T09:52:42;100223.75;;;25.88;25.56
79415;BME280;68864;44.972;19.612;2024-03-23T09:55:09;100205.75;;;24.97;24.90
79415;BME280;68864;44.972;19.612;2024-03-23T09:57:35;100211.47;;;25.15;25.13
79415;BME280;68864;44.972;19.612;2024-03-23T10:00:03;100211.50;;;25.33;25.37
79415;BME280;68864;44.972;19.612;2024-03-23T10:02:29;100196.44;;;25.42;25.48
79415;BME280;68864;44.972;19.612;2024-03-23T10:04:56;100202.78;;;25.18;25.20
79415;BME280;68864;44.972;19.612;2024-03-23T10:07:25;100199.00;;;23.89;27.13
79415;BME280;68864;44.972;19.612;2024-03-23T10:09:53;100193.84;;;23.74;26.91
79415;BME280;68864;44.972;19.612;2024-03-23T10:12:20;100195.94;;;24.27;27.01
79415;BME280;68864;44.972;19.612;2024-03-23T10:14:47;100179.78;;;24.64;26.80
79415;BME280;68864;44.972;19.612;2024-03-23T10:17:15;100173.66;;;24.74;26.52
79415;BME280;68864;44.972;19.612;2024-03-23T10:19:43;100164.81;;;24.10;26.63
79415;BME280;68864;44.972;19.612;2024-03-23T10:22:13;100163.03;;;24.04;26.73
79415;BME280;68864;44.972;19.612;2024-03-23T10:24:41;100163.03;;;24.04;26.68
79415;BME280;68864;44.972;19.612;2024-03-23T10:27:09;100161.84;;;24.45;26.17
79415;BME280;68864;44.972;19.612;2024-03-23T10:29:35;100160.09;;;23.29;27.11
79415;BME280;68864;44.972;19.612;2024-03-23T10:32:08;100145.34;;;23.56;27.19
79415;BME280;68864;44.972;19.612;2024-03-23T10:34:35;100146.75;;;24.04;26.62
79415;BME280;68864;44.972;19.612;2024-03-23T10:37:03;100135.66;;;24.28;26.19
79415;BME280;68864;44.972;19.612;2024-03-23T10:39:31;100137.97;;;24.51;26.08
79415;BME280;68864;44.972;19.612;2024-03-23T10:42:02;100131.03;;;24.22;25.56
79415;BME280;68864;44.972;19.612;2024-03-23T10:44:28;100133.78;;;24.03;26.18
79415;BME280;68864;44.972;19.612;2024-03-23T10:46:57;100124.22;;;24.19;25.71
79415;BME280;68864;44.972;19.612;2024-03-23T10:49:26;100123.34;;;24.09;26.56
79415;BME280;68864;44.972;19.612;2024-03-23T10:51:56;100117.25;;;24.20;26.65
79415;BME280;68864;44.972;19.612;2024-03-23T10:54:24;100116.59;;;24.16;26.31
79415;BME280;68864;44.972;19.612;2024-03-23T10:56:55;100110.47;;;23.65;26.75
79415;BME280;68864;44.972;19.612;2024-03-23T10:59:24;100102.47;;;23.82;27.17
79415;BME280;68864;44.972;19.612;2024-03-23T11:01:55;100102.38;;;23.85;26.46
79415;BME280;68864;44.972;19.612;2024-03-23T11:04:34;100096.16;;;23.56;26.67
79415;BME280;68864;44.972;19.612;2024-03-23T11:07:02;100066.56;;;23.10;27.51
79415;BME280;68864;44.972;19.612;2024-03-23T11:09:41;100082.09;;;23.52;27.81
79415;BME280;68864;44.972;19.612;2024-03-23T11:12:29;100071.63;;;23.80;27.16
79415;BME280;68864;44.972;19.612;2024-03-23T11:15:00;100070.47;;;23.68;26.90
79415;BME280;68864;44.972;19.612;2024-03-23T11:17:28;100053.97;;;23.85;26.75
79415;BME280;68864;44.972;19.612;2024-03-23T11:19:55;100053.53;;;23.96;26.48
79415;BME280;68864;44.972;19.612;2024-03-23T11:22:40;100056.06;;;23.63;26.78
79415;BME280;68864;44.972;19.612;2024-03-23T11:25:19;100030.41;;;23.32;27.61
79415;BME280;68864;44.972;19.612;2024-03-23T11:27:48;100029.69;;;23.19;26.25
79415;BME280;68864;44.972;19.612;2024-03-23T11:30:17;100029.63;;;23.31;27.49
79415;BME280;68864;44.972;19.612;2024-03-23T11:32:46;100031.47;;;23.47;27.19
79415;BME280;68864;44.972;19.612;2024-03-23T11:35:25;100019.91;;;23.20;26.40
79415;BME280;68864;44.972;19.612;2024-03-23T11:38:06;100014.06;;;23.45;27.51
79415;BME280;68864;44.972;19.612;2024-03-23T11:40:32;100016.50;;;23.56;28.07
79415;BME280;68864;44.972;19.612;2024-03-23T11:43:01;100011.66;;;23.65;28.35
79415;BME280;68864;44.972;19.612;2024-03-23T11:45:31;99996.81;;;23.70;27.72
79415;BME280;68864;44.972;19.612;2024-03-23T11:48:07;99998.25;;;23.75;26.30
79415;BME280;68864;44.972;19.612;2024-03-23T11:50:35;99988.72;;;23.60;26.84
79415;BME280;68864;44.972;19.612;2024-03-23T11:53:12;99987.31;;;23.64;27.59
79415;BME280;68864;44.972;19.612;2024-03-23T11:55:48;99980.06;;;23.72;27.49
79415;BME280;68864;44.972;19.612;2024-03-23T11:58:16;99976.94;;;23.80;27.02
79415;BME280;68864;44.972;19.612;2024-03-23T12:00:49;99970.59;;;23.75;26.20
79415;BME280;68864;44.972;19.612;2024-03-23T12:03:18;99964.44;;;23.77;26.15
79415;BME280;68864;44.972;19.612;2024-03-23T12:05:48;99950.34;;;23.73;27.02
79415;BME280;68864;44.972;19.612;2024-03-23T12:08:23;99950.03;;;23.81;27.65
79415;BME280;68864;44.972;19.612;2024-03-23T12:10:50;99943.47;;;23.93;27.41
79415;BME280;68864;44.972;19.612;2024-03-23T12:13:19;99947.25;;;23.90;26.05
79415;BME280;68864;44.972;19.612;2024-03-23T12:15:50;99924.94;;;23.88;25.86
79415;BME280;68864;44.972;19.612;2024-03-23T12:18:17;99931.25;;;23.83;25.94
79415;BME280;68864;44.972;19.612;2024-03-23T12:20:49;99916.97;;;23.74;25.48
79415;BME280;68864;44.972;19.612;2024-03-23T12:23:16;99918.09;;;23.76;26.34
79415;BME280;68864;44.972;19.612;2024-03-23T12:25:42;99905.94;;;23.76;26.68
79415;BME280;68864;44.972;19.612;2024-03-23T12:28:09;99911.63;;;23.76;27.08
79415;BME280;68864;44.972;19.612;2024-03-23T12:30:38;99898.66;;;23.75;26.51
79415;BME280;68864;44.972;19.612;2024-03-23T12:33:07;99891.94;;;23.51;25.59
79415;BME280;68864;44.972;19.612;2024-03-23T12:35:33;99891.75;;;23.45;25.54
79415;BME280;68864;44.972;19.612;2024-03-23T12:38:00;99896.75;;;23.41;25.96
79415;BME280;68864;44.972;19.612;2024-03-23T12:40:26;99891.69;;;23.36;25.81
79415;BME280;68864;44.972;19.612;2024-03-23T12:42:53;99885.88;;;23.40;26.81
79415;BME280;68864;44.972;19.612;2024-03-23T12:45:19;99875.13;;;23.44;26.51
79415;BME280;68864;44.972;19.612;2024-03-23T12:47:46;99875.59;;;23.42;26.39
79415;BME280;68864;44.972;19.612;2024-03-23T12:50:14;99875.34;;;23.49;27.75
79415;BME280;68864;44.972;19.612;2024-03-23T12:52:42;99863.28;;;23.45;26.14
79415;BME280;68864;44.972;19.612;2024-03-23T12:55:08;99853.63;;;23.43;25.58
79415;BME280;68864;44.972;19.612;2024-03-23T12:57:35;99863.41;;;23.42;25.53
79415;BME280;68864;44.972;19.612;2024-03-23T13:00:02;99853.78;;;23.39;25.58
79415;BME280;68864;44.972;19.612;2024-03-23T13:02:30;99847.44;;;23.35;25.90
79415;BME280;68864;44.972;19.612;2024-03-23T13:04:56;99847.59;;;23.31;25.53
79415;BME280;68864;44.972;19.612;2024-03-23T13:07:25;99841.13;;;23.31;25.97
79415;BME280;68864;44.972;19.612;2024-03-23T13:09:51;99843.78;;;23.25;25.38
79415;BME280;68864;44.972;19.612;2024-03-23T13:12:19;99842.53;;;23.26;25.29
79415;BME280;68864;44.972;19.612;2024-03-23T13:14:46;99840.28;;;23.21;25.03
79415;BME280;68864;44.972;19.612;2024-03-23T13:17:13;99834.28;;;23.19;24.71
79415;BME280;68864;44.972;19.612;2024-03-23T13:19:39;99824.97;;;23.19;24.48
79415;BME280;68864;44.972;19.612;2024-03-23T13:22:07;99824.47;;;23.11;25.06
79415;BME280;68864;44.972;19.612;2024-03-23T13:24:34;99820.50;;;23.09;25.42
79415;BME280;68864;44.972;19.612;2024-03-23T13:27:01;99803.81;;;22.89;24.89
79415;BME280;68864;44.972;19.612;2024-03-23T13:29:27;99814.13;;;22.95;24.96
79415;BME280;68864;44.972;19.612;2024-03-23T13:31:55;99807.50;;;22.98;24.92
79415;BME280;68864;44.972;19.612;2024-03-23T13:34:21;99797.72;;;23.00;24.76
79415;BME280;68864;44.972;19.612;2024-03-23T13:36:48;99795.47;;;22.94;24.28
79415;BME280;68864;44.972;19.612;2024-03-23T13:39:14;99794.56;;;22.97;24.83